Time;durP1;ratioP1;P1;durP2;ratioP2;P2;SDS_P1;SDS_P2;PMS_P1;PMS_P2;Temp;Humidity;BMP_temperature;BMP_pressure;BME280_temperature;BME280_humidity;BME280_pressure;Samples;Min_cycle;Max_cycle;Signal;HPM_P1;HPM_P2
2022/05/24 00:00:27;;;;;;;4.87;3.47;;;21.00;1.00;;;;;;5046460;28;20183;-57
2022/05/24 00:02:53;;;;;;;3.70;3.40;;;21.00;1.00;;;;;;5041782;28;20193;-56
2022/05/24 00:05:21;;;;;;;4.10;2.97;;;21.30;1.00;;;;;;5049568;28;20802;-57
2022/05/24 00:07:47;;;;;;;5.10;3.43;;;21.00;1.00;;;;;;5045969;28;20474;-55
2022/05/24 00:10:16;;;;;;;5.67;3.17;;;21.00;1.00;;;;;;5046003;28;20447;-56
2022/05/24 00:12:42;;;;;;;4.50;2.90;;;21.00;1.00;;;;;;5053237;28;20446;-56
2022/05/24 00:15:19;;;;;;;4.20;3.03;;;21.00;1.00;;;;;;5048459;28;20446;-56
2022/05/24 00:17:49;;;;;;;3.60;3.00;;;21.00;1.00;;;;;;5052677;28;20349;-56
2022/05/24 00:20:15;;;;;;;6.07;3.10;;;20.90;1.00;;;;;;5045676;28;20529;-55
2022/05/24 00:22:40;;;;;;;4.57;3.00;;;20.90;1.00;;;;;;5041089;28;20457;-56
2022/05/24 00:25:06;;;;;;;5.17;3.50;;;21.00;1.00;;;;;;5049962;28;20473;-55
2022/05/24 00:27:32;;;;;;;4.23;3.30;;;21.00;1.00;;;;;;5044888;28;20272;-57
2022/05/24 00:29:58;;;;;;;8.20;3.40;;;21.00;1.00;;;;;;5045094;28;20557;-56
2022/05/24 00:32:24;;;;;;;4.73;3.47;;;20.90;1.00;;;;;;5045868;28;20492;-56
2022/05/24 00:34:50;;;;;;;3.40;2.80;;;20.80;1.00;;;;;;5045958;28;20462;-56
2022/05/24 00:37:23;;;;;;;5.03;3.50;;;20.90;1.00;;;;;;5048283;28;20763;-56
2022/05/24 00:39:48;;;;;;;5.23;3.60;;;20.90;1.00;;;;;;5048174;28;20480;-56
2022/05/24 00:42:19;;;;;;;6.50;3.77;;;20.90;1.00;;;;;;5049711;28;20445;-56
2022/05/24 00:44:58;;;;;;;5.07;3.70;;;20.80;1.00;;;;;;5044049;28;20258;-56
2022/05/24 00:47:48;;;;;;;4.30;3.47;;;20.60;1.00;;;;;;5046728;28;20453;-55
2022/05/24 00:50:17;;;;;;;3.53;3.23;;;20.60;1.00;;;;;;5044076;28;20447;-54
2022/05/24 00:52:43;;;;;;;4.93;4.00;;;20.50;1.00;;;;;;5045665;28;20466;-56
2022/05/24 00:55:12;;;;;;;3.80;3.50;;;20.50;1.00;;;;;;5046557;28;20580;-57
2022/05/24 00:57:46;;;;;;;6.97;3.47;;;20.40;1.00;;;;;;5045471;28;20192;-56
2022/05/24 01:00:21;;;;;;;8.27;3.20;;;20.40;1.00;;;;;;5048427;28;20452;-55
2022/05/24 01:02:47;;;;;;;3.40;2.80;;;20.40;1.00;;;;;;5040820;28;20497;-55
2022/05/24 01:05:20;;;;;;;4.10;3.70;;;20.40;1.00;;;;;;5047298;28;20871;-56
2022/05/24 01:07:46;;;;;;;5.77;4.77;;;20.50;1.00;;;;;;5046425;28;20452;-56
2022/05/24 01:10:19;;;;;;;4.67;3.67;;;20.50;1.00;;;;;;5047383;28;20532;-56
2022/05/24 01:13:04;;;;;;;4.40;4.00;;;20.50;1.00;;;;;;5049672;28;20192;-57
2022/05/24 01:15:30;;;;;;;4.00;3.70;;;20.50;1.00;;;;;;5057840;28;20445;-55
2022/05/24 01:17:57;;;;;;;5.97;3.50;;;20.50;1.00;;;;;;5044068;28;20478;-56
2022/05/24 01:20:23;;;;;;;4.03;3.70;;;20.50;1.00;;;;;;5046065;28;20939;-56
2022/05/24 01:23:10;;;;;;;4.33;3.87;;;20.50;1.00;;;;;;5045431;28;20464;-57
2022/05/24 01:25:56;;;;;;;7.27;3.87;;;20.50;1.00;;;;;;5046753;28;20235;-57
2022/05/24 01:28:25;;;;;;;5.93;4.37;;;20.50;1.00;;;;;;5050347;28;20537;-56
2022/05/24 01:30:51;;;;;;;6.03;4.37;;;20.50;1.00;;;;;;5053923;28;20447;-56
2022/05/24 01:36:10;;;;;;;4.10;3.70;;;20.50;1.00;;;;;;5056522;28;20203;-56
2022/05/24 01:39:02;;;;;;;6.47;4.00;;;20.50;1.00;;;;;;5049783;28;20479;-55
2022/05/24 01:41:34;;;;;;;6.83;3.80;;;20.50;1.00;;;;;;5046502;28;20803;-56
2022/05/24 01:44:00;;;;;;;4.10;3.70;;;20.50;1.00;;;;;;5054065;28;20900;-56
2022/05/24 01:46:39;;;;;;;4.57;3.70;;;20.60;1.00;;;;;;5055791;28;20851;-55
2022/05/24 01:49:27;;;;;;;4.07;3.77;;;20.60;1.00;;;;;;5050016;28;20993;-57
2022/05/24 01:52:01;;;;;;;4.43;4.03;;;20.60;1.00;;;;;;5053120;28;20434;-56
2022/05/24 01:54:29;;;;;;;4.13;3.83;;;20.60;1.00;;;;;;5049903;28;20445;-57
2022/05/24 01:57:12;;;;;;;5.10;3.90;;;20.50;1.00;;;;;;5047712;28;20450;-56
2022/05/24 01:59:40;;;;;;;4.43;4.10;;;20.60;1.00;;;;;;5059426;28;20800;-56
2022/05/24 02:02:06;;;;;;;10.20;4.10;;;20.60;1.00;;;;;;5049914;28;20784;-56
2022/05/24 02:04:34;;;;;;;4.10;3.80;;;20.60;1.00;;;;;;5049924;28;20458;-55
2022/05/24 02:07:09;;;;;;;4.00;3.60;;;20.60;1.00;;;;;;5044430;28;20214;-56
2022/05/24 02:09:40;;;;;;;4.27;3.90;;;20.60;1.00;;;;;;5045141;28;20449;-55
2022/05/24 02:12:11;;;;;;;5.60;3.60;;;20.50;1.00;;;;;;5044426;28;20461;-55
2022/05/24 02:14:42;;;;;;;4.30;4.00;;;20.50;1.00;;;;;;5045397;28;20446;-57
2022/05/24 02:17:13;;;;;;;4.70;3.90;;;20.50;1.00;;;;;;5043944;28;20487;-55
2022/05/24 02:19:44;;;;;;;4.53;3.73;;;20.60;1.00;;;;;;5044340;28;21031;-56
2022/05/24 02:22:14;;;;;;;4.80;4.03;;;20.60;1.00;;;;;;5038088;28;20458;-58
2022/05/24 02:24:40;;;;;;;3.80;3.40;;;20.60;1.00;;;;;;5044982;28;20915;-56
2022/05/24 02:27:05;;;;;;;4.10;3.70;;;20.60;1.00;;;;;;5042786;28;20459;-57
2022/05/24 02:29:31;;;;;;;3.73;3.40;;;20.60;1.00;;;;;;5047572;28;20199;-55
2022/05/24 02:31:57;;;;;;;5.80;3.90;;;20.70;1.00;;;;;;5044542;28;20194;-56
2022/05/24 02:34:23;;;;;;;4.10;3.80;;;20.60;1.00;;;;;;5043619;28;20808;-56
2022/05/24 02:36:48;;;;;;;5.73;3.97;;;20.60;1.00;;;;;;5043269;28;20219;-56
2022/05/24 02:39:14;;;;;;;4.33;3.83;;;20.60;1.00;;;;;;5044274;28;20253;-57
2022/05/24 02:41:39;;;;;;;4.47;4.07;;;20.60;1.00;;;;;;5044030;28;20369;-55
2022/05/24 02:44:12;;;;;;;4.10;3.80;;;20.50;1.00;;;;;;5049586;28;20188;-55
2022/05/24 02:46:41;;;;;;;5.97;4.10;;;20.60;1.00;;;;;;5054283;28;20687;-56
2022/05/24 02:49:08;;;;;;;5.77;3.60;;;;;;;;;;5048832;28;20675;-57
2022/05/24 02:51:35;;;;;;;4.80;3.40;;;20.60;1.00;;;;;;5044639;28;20451;-57
2022/05/24 02:54:00;;;;;;;4.90;4.10;;;20.60;1.00;;;;;;5041562;28;20520;-56
2022/05/24 02:56:27;;;;;;;4.77;4.30;;;20.60;1.00;;;;;;5042990;28;20497;-56
2022/05/24 02:58:53;;;;;;;4.10;3.80;;;20.50;1.00;;;;;;5044913;28;20227;-57
2022/05/24 03:01:24;;;;;;;3.83;3.50;;;20.50;1.00;;;;;;5043821;28;20491;-56
2022/05/24 03:03:51;;;;;;;3.70;3.40;;;20.50;1.00;;;;;;5043328;28;20278;-55
2022/05/24 03:06:18;;;;;;;4.60;4.20;;;20.50;1.00;;;;;;5048025;28;20496;-56
2022/05/24 03:14:14;;;;;;;5.30;4.10;;;20.50;1.00;;;;;;5050857;28;20614;-57
2022/05/24 03:14:15;;;;;;;4.50;3.87;;;20.50;1.00;;;;;;5049325;28;20471;-57
2022/05/24 03:16:45;;;;;;;4.70;3.53;;;20.60;1.00;;;;;;5045403;28;20479;-55
2022/05/24 03:19:10;;;;;;;4.20;3.50;;;20.60;1.00;;;;;;5045350;28;20458;-56
2022/05/24 03:21:36;;;;;;;5.43;3.50;;;20.60;1.00;;;;;;5047872;28;20449;-55
2022/05/24 03:24:01;;;;;;;4.63;3.83;;;20.60;1.00;;;;;;5052468;28;20663;-56
2022/05/24 03:26:27;;;;;;;5.67;3.60;;;20.70;1.00;;;;;;5047874;28;20208;-56
2022/05/24 03:28:52;;;;;;;8.03;3.67;;;20.60;1.00;;;;;;5048014;28;20283;-56
2022/05/24 03:31:19;;;;;;;4.70;3.50;;;20.80;1.00;;;;;;5055036;28;20263;-55
2022/05/24 03:33:44;;;;;;;6.57;4.43;;;20.80;1.00;;;;;;5049122;28;20188;-56
2022/05/24 03:36:11;;;;;;;4.40;3.87;;;;;;;;;;5047634;28;20449;-56
2022/05/24 03:38:36;;;;;;;5.03;4.27;;;20.80;1.00;;;;;;5048291;28;20443;-55
2022/05/24 03:41:02;;;;;;;3.90;3.60;;;20.70;1.00;;;;;;5049662;28;20447;-55
2022/05/24 03:43:27;;;;;;;4.03;2.90;;;20.80;1.00;;;;;;5049109;28;20279;-55
2022/05/24 03:46:02;;;;;;;3.83;3.43;;;20.90;1.00;;;;;;5044685;28;20228;-57
2022/05/24 03:48:28;;;;;;;4.50;3.20;;;20.80;1.00;;;;;;5048558;28;20837;-56
2022/05/24 03:50:55;;;;;;;6.10;3.87;;;20.80;1.00;;;;;;5044287;28;20449;-56
2022/05/24 03:53:20;;;;;;;5.80;3.53;;;20.80;1.00;;;;;;5044009;28;20866;-56
2022/05/24 03:55:46;;;;;;;4.50;3.73;;;21.00;1.00;;;;;;5046209;28;20454;-56
2022/05/24 03:58:11;;;;;;;5.10;4.70;;;20.70;1.00;;;;;;5045996;28;20533;-56
2022/05/24 04:00:40;;;;;;;5.27;3.50;;;20.80;1.00;;;;;;5047374;28;20558;-55
2022/05/24 04:03:06;;;;;;;3.73;2.77;;;20.80;1.00;;;;;;5050067;28;20584;-56
2022/05/24 04:05:33;;;;;;;4.70;3.23;;;20.90;1.00;;;;;;5048188;28;20466;-56
2022/05/24 04:07:59;;;;;;;3.73;3.33;;;21.00;1.00;;;;;;5053170;28;20446;-56
2022/05/24 04:10:25;;;;;;;6.90;4.30;;;21.00;1.00;;;;;;5042472;28;20780;-56
2022/05/24 04:12:51;;;;;;;3.33;3.03;;;;;;;;;;5046401;28;20447;-57
2022/05/24 04:15:17;;;;;;;3.07;2.60;;;;;;;;;;5025406;28;20203;-58
2022/05/24 04:17:43;;;;;;;2.50;2.27;;;21.30;1.00;;;;;;5026545;28;20483;-55
2022/05/24 04:20:09;;;;;;;3.70;2.70;;;21.40;1.00;;;;;;5020387;28;22062;-55
2022/05/24 04:22:35;;;;;;;2.30;2.10;;;21.50;1.00;;;;;;5020042;28;20191;-58
2022/05/24 04:25:01;;;;;;;4.67;2.20;;;21.70;1.00;;;;;;5042999;28;21018;-59
2022/05/24 04:27:27;;;;;;;5.30;2.17;;;21.70;1.00;;;;;;5048750;28;20287;-57
2022/05/24 04:29:53;;;;;;;5.03;2.47;;;21.60;1.00;;;;;;5049287;28;20985;-59
2022/05/24 04:32:19;;;;;;;3.10;2.10;;;21.60;1.00;;;;;;5045666;28;20446;-59
2022/05/24 04:34:45;;;;;;;5.80;2.43;;;21.60;1.00;;;;;;5048070;28;20563;-59
2022/05/24 04:37:11;;;;;;;2.87;2.40;;;21.70;1.00;;;;;;5049061;28;20438;-59
2022/05/24 04:39:38;;;;;;;2.40;2.03;;;21.70;1.00;;;;;;5048021;28;20196;-59
2022/05/24 04:42:19;;;;;;;3.83;2.30;;;21.70;1.00;;;;;;5046913;28;20537;-58
2022/05/24 04:44:57;;;;;;;3.90;1.90;;;21.60;1.00;;;;;;5057401;28;20470;-59
2022/05/24 04:47:25;;;;;;;3.63;1.93;;;21.60;1.00;;;;;;5048892;28;20435;-60
2022/05/24 04:49:54;;;;;;;1.93;1.73;;;21.50;1.00;;;;;;5045268;28;20445;-59
2022/05/24 04:52:21;;;;;;;3.20;1.97;;;21.50;1.00;;;;;;5055676;28;21122;-59
2022/05/24 04:54:47;;;;;;;3.43;2.27;;;21.60;1.00;;;;;;5046725;28;20443;-59
2022/05/24 04:57:13;;;;;;;3.03;1.80;;;21.60;1.00;;;;;;5045843;28;20492;-59
2022/05/24 04:59:39;;;;;;;3.03;1.80;;;21.80;1.00;;;;;;5046300;28;20657;-56
2022/05/24 05:02:06;;;;;;;4.40;2.00;;;21.70;1.00;;;;;;5048264;28;20444;-57
2022/05/24 05:04:32;;;;;;;2.83;1.63;;;21.80;1.00;;;;;;5052852;28;20437;-56
2022/05/24 05:06:58;;;;;;;1.97;1.50;;;21.80;1.00;;;;;;5052842;28;20466;-56
2022/05/24 05:09:23;;;;;;;2.77;1.70;;;21.80;1.00;;;;;;5060623;28;20745;-57
2022/05/24 05:11:49;;;;;;;2.87;2.20;;;21.80;1.00;;;;;;5046322;28;20184;-58
2022/05/24 05:14:15;;;;;;;2.20;1.90;;;21.90;1.00;;;;;;5052793;28;20179;-55
2022/05/24 05:16:41;;;;;;;2.77;2.00;;;22.00;1.00;;;;;;5065100;28;20522;-59
2022/05/24 05:19:09;;;;;;;3.03;2.43;;;22.20;1.00;;;;;;5029060;28;20199;-56
2022/05/24 05:21:37;;;;;;;3.30;2.70;;;22.20;1.00;;;;;;5052437;28;20804;-56
2022/05/24 05:24:04;;;;;;;2.07;1.63;;;;;;;;;;5053966;28;20756;-57
2022/05/24 05:26:30;;;;;;;3.30;1.60;;;;;;;;;;5054213;28;20448;-57
2022/05/24 05:28:56;;;;;;;2.00;1.70;;;22.40;1.00;;;;;;5047524;28;20454;-57
2022/05/24 05:31:26;;;;;;;2.90;1.90;;;22.40;1.00;;;;;;5045284;28;20446;-57
2022/05/24 05:33:53;;;;;;;1.77;1.67;;;22.30;1.00;;;;;;5042418;28;20199;-56
2022/05/24 05:36:19;;;;;;;2.07;1.90;;;22.30;1.00;;;;;;5047290;28;20491;-57
2022/05/24 05:38:46;;;;;;;2.23;2.03;;;22.30;1.00;;;;;;5051117;28;20413;-58
2022/05/24 05:41:15;;;;;;;2.60;1.93;;;22.20;1.00;;;;;;5062201;28;20469;-57
2022/05/24 05:43:41;;;;;;;3.10;2.00;;;22.20;1.00;;;;;;5066644;28;20934;-56
2022/05/24 05:46:14;;;;;;;4.30;2.80;;;22.30;1.00;;;;;;5062734;28;20478;-55
2022/05/24 05:48:41;;;;;;;3.40;2.23;;;22.50;1.00;;;;;;5048528;28;20798;-56
2022/05/24 05:51:17;;;;;;;3.73;2.20;;;22.40;1.00;;;;;;5056239;28;20465;-56
2022/05/24 05:53:44;;;;;;;2.47;1.90;;;;;;;;;;5046948;28;20941;-56
2022/05/24 05:56:21;;;;;;;2.97;2.23;;;22.40;1.00;;;;;;5059433;28;20524;-57
2022/05/24 05:58:48;;;;;;;2.83;1.67;;;22.40;1.00;;;;;;5049866;28;20438;-56
2022/05/24 06:01:16;;;;;;;2.40;2.17;;;22.30;1.00;;;;;;5052685;28;20448;-57
2022/05/24 06:03:42;;;;;;;2.63;1.97;;;22.10;1.00;;;;;;5060698;28;20584;-57
2022/05/24 06:06:20;;;;;;;2.20;1.70;;;21.90;1.00;;;;;;5045165;28;20572;-57
2022/05/24 06:08:45;;;;;;;2.37;1.60;;;21.90;1.00;;;;;;5048527;28;20747;-57
2022/05/24 06:13:36;;;;;;;3.13;2.07;;;22.50;1.00;;;;;;5053032;28;20190;-59
2022/05/24 06:16:02;;;;;;;2.90;2.07;;;22.50;1.00;;;;;;5052144;28;20195;-56
2022/05/24 06:18:27;;;;;;;4.87;2.47;;;22.30;1.00;;;;;;5050917;28;20331;-56
2022/05/24 06:20:53;;;;;;;2.60;2.30;;;22.30;1.00;;;;;;5049905;28;20187;-57
2022/05/24 06:23:18;;;;;;;4.57;2.33;;;22.40;1.00;;;;;;5054048;28;20281;-56
2022/05/24 06:25:44;;;;;;;2.67;2.47;;;22.50;1.00;;;;;;5070779;28;20203;-55
2022/05/24 06:28:15;;;;;;;4.07;2.27;;;22.50;1.00;;;;;;5049208;28;20204;-58
2022/05/24 06:30:41;;;;;;;3.00;2.10;;;;;;;;;;5052758;28;20176;-56
2022/05/24 06:33:07;;;;;;;3.70;2.50;;;22.80;1.00;;;;;;5056023;28;20461;-58
2022/05/24 06:35:34;;;;;;;2.60;1.90;;;22.60;1.00;;;;;;5048651;28;20477;-56
2022/05/24 06:38:00;;;;;;;2.27;2.07;;;22.70;1.00;;;;;;5052417;28;20604;-57
2022/05/24 06:40:25;;;;;;;2.83;2.20;;;22.80;1.00;;;;;;5049932;28;20508;-56
2022/05/24 06:42:51;;;;;;;3.20;2.63;;;23.10;1.00;;;;;;5049759;28;20223;-57
2022/05/24 06:45:17;;;;;;;2.73;2.53;;;;;;;;;;5050171;28;20254;-56
2022/05/24 06:47:43;;;;;;;3.60;2.67;;;;;;;;;;5049191;28;20196;-57
2022/05/24 06:50:10;;;;;;;3.87;2.40;;;22.70;1.00;;;;;;5052358;28;20485;-59
2022/05/24 06:52:36;;;;;;;6.93;2.80;;;23.00;1.00;;;;;;5048763;28;20417;-58
2022/05/24 06:55:02;;;;;;;5.13;3.20;;;22.90;1.00;;;;;;5051264;28;20450;-57
2022/05/24 06:57:28;;;;;;;2.77;2.40;;;22.80;1.00;;;;;;5050766;28;20958;-58
2022/05/24 07:02:38;;;;;;;2.63;2.20;;;22.60;1.00;;;;;;5050676;28;20556;-56
2022/05/24 07:05:12;;;;;;;4.93;3.10;;;22.60;1.00;;;;;;5051951;28;20420;-56
2022/05/24 07:07:39;;;;;;;4.83;2.90;;;22.90;1.00;;;;;;5050754;28;20267;-57
2022/05/24 07:10:07;;;;;;;3.00;2.50;;;22.90;1.00;;;;;;5048639;28;20474;-57
2022/05/24 07:12:34;;;;;;;4.30;2.57;;;22.90;1.00;;;;;;5049395;28;20530;-56
2022/05/24 07:14:59;;;;;;;6.40;2.50;;;23.10;1.00;;;;;;5051730;28;20442;-58
2022/05/24 07:17:25;;;;;;;5.20;2.57;;;23.20;1.00;;;;;;5055551;28;20449;-57
2022/05/24 07:19:51;;;;;;;4.90;2.63;;;23.30;1.00;;;;;;5054084;28;20220;-56
2022/05/24 07:22:17;;;;;;;4.00;3.20;;;23.70;1.00;;;;;;5053393;28;20455;-57
2022/05/24 07:24:45;;;;;;;4.43;2.60;;;23.70;1.00;;;;;;5071826;28;20187;-57
2022/05/24 07:27:13;;;;;;;3.60;2.37;;;23.80;1.00;;;;;;5049690;28;20471;-56
2022/05/24 07:29:39;;;;;;;3.63;2.60;;;23.80;1.00;;;;;;5050903;28;20986;-58
2022/05/24 07:32:05;;;;;;;2.87;2.60;;;24.00;1.00;;;;;;5047312;28;20456;-57
2022/05/24 07:34:36;;;;;;;3.30;2.83;;;24.20;1.00;;;;;;5049636;28;20472;-58
2022/05/24 07:37:03;;;;;;;7.80;4.60;;;24.50;1.00;;;;;;5051725;28;20470;-56
2022/05/24 07:39:29;;;;;;;5.33;4.07;;;24.70;1.00;;;;;;5050603;28;20459;-56
2022/05/24 07:47:32;;;;;;;5.60;2.67;;;25.30;1.00;;;;;;5051183;28;20950;-56
2022/05/24 07:49:58;;;;;;;2.63;2.43;;;24.20;1.00;;;;;;5051896;28;20442;-58
2022/05/24 07:52:24;;;;;;;4.13;2.40;;;24.40;1.00;;;;;;5068573;28;20183;-58
2022/05/24 07:54:50;;;;;;;3.37;3.17;;;24.60;1.00;;;;;;5071525;28;20445;-57
2022/05/24 07:57:16;;;;;;;3.13;2.50;;;24.60;1.00;;;;;;5070726;28;20459;-56
2022/05/24 07:59:43;;;;;;;3.00;2.57;;;24.70;1.00;;;;;;5051574;28;20903;-58
2022/05/24 08:02:09;;;;;;;4.13;2.63;;;24.40;1.00;;;;;;5051499;28;20267;-57
2022/05/24 08:04:34;;;;;;;3.13;2.37;;;24.00;1.00;;;;;;5051521;28;20521;-57
2022/05/24 08:07:01;;;;;;;4.13;2.47;;;24.00;1.00;;;;;;5053965;28;21149;-57
2022/05/24 08:09:27;;;;;;;5.80;2.63;;;24.00;1.00;;;;;;5071098;28;20180;-58
2022/05/24 08:11:52;;;;;;;3.60;2.83;;;24.10;1.00;;;;;;5050558;28;20917;-57
2022/05/24 08:14:19;;;;;;;3.60;2.87;;;;;;;;;;5068211;28;20632;-57
2022/05/24 08:16:44;;;;;;;4.13;2.70;;;24.10;1.00;;;;;;5071212;28;20191;-57
2022/05/24 08:19:10;;;;;;;3.17;2.70;;;24.10;1.00;;;;;;5051480;28;20863;-57
2022/05/24 08:21:36;;;;;;;3.90;2.93;;;24.20;1.00;;;;;;5068551;28;20241;-58
2022/05/24 08:24:01;;;;;;;4.20;2.90;;;24.10;1.00;;;;;;5070924;28;20192;-58
2022/05/24 08:26:27;;;;;;;3.20;2.90;;;;;;;;;;5070657;28;20610;-55
2022/05/24 08:28:53;;;;;;;7.50;3.70;;;24.20;1.00;;;;;;5051464;28;20254;-58
2022/05/24 08:31:18;;;;;;;3.43;3.13;;;24.30;1.00;;;;;;5049198;28;20534;-57
2022/05/24 08:33:45;;;;;;;2.77;2.50;;;24.50;1.00;;;;;;5055069;28;20582;-56
2022/05/24 08:36:15;;;;;;;5.67;3.20;;;24.40;1.00;;;;;;5050634;28;20215;-56
2022/05/24 08:38:41;;;;;;;2.87;2.57;;;24.30;1.00;;;;;;5056529;28;20912;-57
2022/05/24 08:41:34;;;;;;;3.90;2.53;;;24.20;1.00;;;;;;5057535;28;20438;-57
2022/05/24 08:49:56;;;;;;;3.90;2.77;;;24.10;1.00;;;;;;5060569;28;20476;-57
2022/05/24 08:52:23;;;;;;;3.27;2.97;;;24.00;1.00;;;;;;5050112;28;20408;-57
2022/05/24 08:54:50;;;;;;;4.90;3.10;;;23.90;1.00;;;;;;5052778;28;20442;-57
2022/05/24 08:57:47;;;;;;;3.20;2.80;;;24.10;1.00;;;;;;5049711;28;20422;-56
2022/05/24 09:00:17;;;;;;;5.80;2.50;;;24.50;1.00;;;;;;5050386;28;20472;-56
2022/05/24 09:02:46;;;;;;;3.63;2.93;;;25.30;1.00;;;;;;5049638;28;20465;-57
2022/05/24 09:05:30;;;;;;;4.03;3.03;;;26.00;1.00;;;;;;5047631;28;20451;-58
2022/05/24 09:07:58;;;;;;;2.93;2.70;;;26.00;1.00;;;;;;5049062;28;20442;-58
2022/05/24 09:10:33;;;;;;;3.30;3.10;;;26.10;1.00;;;;;;5054273;28;20533;-57
2022/05/24 09:13:26;;;;;;;4.57;3.00;;;25.60;1.00;;;;;;5062280;28;20883;-58
2022/05/24 09:15:58;;;;;;;3.27;2.60;;;25.50;1.00;;;;;;5047076;28;20525;-58
2022/05/24 09:18:40;;;;;;;5.30;2.90;;;25.40;1.00;;;;;;5052408;28;20966;-58
2022/05/24 09:21:29;;;;;;;3.40;3.00;;;25.60;1.00;;;;;;5050402;28;20429;-57
2022/05/24 09:24:11;;;;;;;5.50;2.90;;;25.60;1.00;;;;;;5054032;28;20447;-57
2022/05/24 09:27:11;;;;;;;3.30;3.00;;;25.80;1.00;;;;;;5037541;28;20440;-57
2022/05/24 09:30:05;;;;;;;3.20;2.90;;;25.80;1.00;;;;;;5045000;28;20456;-57
2022/05/24 09:32:36;;;;;;;3.53;3.23;;;25.70;1.00;;;;;;5048829;28;20831;-57
2022/05/24 09:35:23;;;;;;;2.30;2.20;;;25.50;1.00;;;;;;5050631;28;20472;-56
2022/05/24 09:38:22;;;;;;;3.00;2.70;;;25.30;1.00;;;;;;5047995;28;20438;-58
2022/05/24 09:40:50;;;;;;;4.23;3.07;;;24.80;1.00;;;;;;5045538;28;20423;-56
2022/05/24 09:43:33;;;;;;;3.90;3.40;;;24.60;1.00;;;;;;5047908;28;20879;-57
2022/05/24 09:46:22;;;;;;;2.97;2.67;;;24.50;1.00;;;;;;5052389;28;20518;-56
2022/05/24 09:49:02;;;;;;;3.10;2.80;;;24.30;1.00;;;;;;5049165;28;20790;-57
2022/05/24 09:51:41;;;;;;;2.93;2.73;;;24.20;1.00;;;;;;5071418;28;21011;-56
2022/05/24 09:54:14;;;;;;;6.17;3.40;;;24.20;1.00;;;;;;5052903;28;20446;-56
2022/05/24 09:56:40;;;;;;;3.33;3.00;;;24.30;1.00;;;;;;5059134;28;20433;-57
2022/05/24 09:59:19;;;;;;;4.90;2.70;;;24.50;1.00;;;;;;5056199;28;21731;-57
2022/05/24 10:01:46;;;;;;;3.83;2.73;;;24.50;1.00;;;;;;5073469;28;20222;-56
2022/05/24 10:04:25;;;;;;;4.07;3.07;;;24.40;1.00;;;;;;5053036;28;20424;-58
2022/05/24 10:06:58;;;;;;;3.50;2.87;;;24.70;1.00;;;;;;5051152;28;20555;-57
2022/05/24 10:09:45;;;;;;;3.83;2.93;;;24.70;1.00;;;;;;5050923;28;20478;-57
2022/05/24 10:12:25;;;;;;;3.60;3.30;;;24.70;1.00;;;;;;5060883;28;20485;-56
2022/05/24 10:14:50;;;;;;;8.00;3.90;;;24.90;1.00;;;;;;5055214;28;20424;-56
2022/05/24 10:17:45;;;;;;;3.57;3.27;;;25.20;1.00;;;;;;5051851;28;20438;-56
2022/05/24 10:20:34;;;;;;;3.50;3.20;;;25.50;1.00;;;;;;5051920;28;20536;-57
2022/05/24 10:22:59;;;;;;;3.37;2.90;;;26.00;1.00;;;;;;5052618;28;20443;-57
2022/05/24 10:25:50;;;;;;;3.33;3.03;;;26.10;1.00;;;;;;5052644;28;20496;-57
2022/05/24 10:28:53;;;;;;;3.50;3.00;;;26.00;1.00;;;;;;5050177;28;20176;-59
2022/05/24 10:31:54;;;;;;;6.03;3.37;;;26.30;1.00;;;;;;5051989;28;20446;-56
2022/05/24 10:40:28;;;;;;;5.83;2.90;;;26.30;1.00;;;;;;5052555;28;20436;-56
2022/05/24 10:43:28;;;;;;;5.17;3.33;;;26.50;1.00;;;;;;5051336;28;20940;-56
2022/05/24 10:46:01;;;;;;;3.00;2.70;;;26.40;1.00;;;;;;5051303;28;20478;-57
2022/05/24 10:48:43;;;;;;;4.00;3.10;;;26.50;1.00;;;;;;5051180;28;21010;-57
2022/05/24 10:51:24;;;;;;;3.23;2.93;;;26.40;1.00;;;;;;5051091;28;21018;-57
2022/05/24 10:54:05;;;;;;;4.40;3.10;;;26.40;1.00;;;;;;5051040;28;20453;-58
2022/05/24 10:56:53;;;;;;;2.60;2.40;;;26.50;1.00;;;;;;5048817;28;20465;-58
2022/05/24 10:59:39;;;;;;;3.40;2.50;;;26.70;1.00;;;;;;5048472;28;20450;-59
2022/05/24 11:02:20;;;;;;;3.17;2.60;;;26.50;1.00;;;;;;5053954;28;20521;-58
2022/05/24 11:04:59;;;;;;;1.80;1.70;;;26.40;1.00;;;;;;5050856;28;20927;-57
2022/05/24 11:07:27;;;;;;;2.07;1.60;;;26.20;1.00;;;;;;5049307;28;20823;-56
2022/05/24 11:10:21;;;;;;;2.43;1.87;;;26.10;1.00;;;;;;5050628;28;20453;-58
2022/05/24 11:12:49;;;;;;;3.07;1.80;;;26.10;1.00;;;;;;5065351;28;20444;-58
2022/05/24 11:15:23;;;;;;;5.93;1.90;;;26.20;1.00;;;;;;5051487;28;20436;-57
2022/05/24 11:17:49;;;;;;;3.77;2.23;;;26.50;1.00;;;;;;5050359;28;20591;-57
2022/05/24 11:20:22;;;;;;;4.77;1.83;;;26.10;1.00;;;;;;5046550;28;20449;-58
2022/05/24 11:23:07;;;;;;;1.87;1.20;;;25.90;1.00;;;;;;5059117;28;20447;-57
2022/05/24 11:25:49;;;;;;;3.37;1.80;;;26.20;1.00;;;;;;5065573;28;20503;-58
2022/05/24 11:28:21;;;;;;;3.00;1.57;;;26.50;1.00;;;;;;5071913;28;20955;-56
2022/05/24 11:30:48;;;;;;;1.73;1.47;;;26.70;1.00;;;;;;5054092;28;20417;-57
2022/05/24 11:33:33;;;;;;;3.00;1.40;;;26.60;1.00;;;;;;5053555;28;20424;-58
2022/05/24 11:36:34;;;;;;;1.83;1.23;;;26.80;1.00;;;;;;5072251;28;20433;-57
2022/05/24 11:39:13;;;;;;;5.10;1.83;;;27.00;1.00;;;;;;5071969;28;20511;-57
2022/05/24 11:41:39;;;;;;;2.43;1.50;;;27.20;1.00;;;;;;5071846;28;20445;-57
2022/05/24 11:44:26;;;;;;;1.40;1.17;;;27.50;1.00;;;;;;5071640;28;20549;-59
2022/05/24 11:46:52;;;;;;;4.50;2.00;;;27.50;1.00;;;;;;5071779;28;20211;-57
2022/05/24 11:49:21;;;;;;;1.50;1.33;;;27.60;1.00;;;;;;5071763;28;20456;-58
2022/05/24 11:51:49;;;;;;;1.90;1.47;;;27.70;1.00;;;;;;5071365;28;20187;-59
2022/05/24 11:54:21;;;;;;;1.20;1.10;;;27.40;1.00;;;;;;5057991;28;20588;-56
2022/05/24 11:57:02;;;;;;;1.10;0.93;;;27.20;1.00;;;;;;5050992;28;20947;-58
2022/05/24 11:59:40;;;;;;;2.83;1.30;;;27.00;1.00;;;;;;5051640;28;20405;-58
2022/05/24 12:07:54;;;;;;;1.53;1.20;;;26.70;1.00;;;;;;5060679;28;20543;-56
2022/05/24 12:08:37;;;;;;;2.60;1.37;;;26.80;1.00;;;;;;5053623;28;20446;-59
2022/05/24 12:11:15;;;;;;;2.00;1.23;;;26.60;1.00;;;;;;5051020;28;20442;-57
2022/05/24 12:13:44;;;;;;;3.27;1.53;;;26.40;1.00;;;;;;5051043;28;20774;-56
2022/05/24 12:16:28;;;;;;;2.93;1.30;;;26.60;1.00;;;;;;5050686;28;20441;-58
2022/05/24 12:18:59;;;;;;;1.50;1.20;;;26.90;1.00;;;;;;5050158;28;20498;-57
2022/05/24 12:22:00;;;;;;;3.63;1.47;;;27.20;1.00;;;;;;5064959;28;20440;-58
2022/05/24 12:24:40;;;;;;;2.70;1.07;;;26.60;1.00;;;;;;5071008;28;20429;-57
2022/05/24 12:27:20;;;;;;;2.97;1.30;;;26.30;1.00;;;;;;5059334;28;20466;-58
2022/05/24 12:29:57;;;;;;;1.23;1.13;;;26.00;1.00;;;;;;5050811;28;20975;-59
2022/05/24 12:32:25;;;;;;;3.03;1.37;;;25.80;1.00;;;;;;5050754;28;20886;-58
2022/05/24 12:34:51;;;;;;;2.17;1.53;;;25.70;1.00;;;;;;5050270;28;20474;-56
2022/05/24 12:37:29;;;;;;;2.70;1.40;;;25.60;1.00;;;;;;5050200;28;20558;-58
2022/05/24 12:40:11;;;;;;;2.27;1.20;;;25.40;1.00;;;;;;5050958;28;20773;-57
2022/05/24 12:42:54;;;;;;;2.60;1.30;;;25.20;1.00;;;;;;5053797;28;20434;-58
2022/05/24 12:45:33;;;;;;;1.97;1.50;;;25.30;1.00;;;;;;5050486;28;20468;-57
2022/05/24 12:48:00;;;;;;;2.97;1.40;;;25.10;1.00;;;;;;5059275;28;20431;-57
2022/05/24 12:50:28;;;;;;;4.23;1.57;;;25.30;1.00;;;;;;5070872;28;20912;-58
2022/05/24 12:53:03;;;;;;;2.00;1.43;;;25.40;1.00;;;;;;5064860;28;20948;-58
2022/05/24 12:58:43;;;;;;;2.70;1.17;;;25.30;1.00;;;;;;5049924;28;20454;-58
2022/05/24 13:01:32;;;;;;;2.07;1.33;;;25.40;1.00;;;;;;5048895;28;20454;-56
2022/05/24 13:04:08;;;;;;;2.10;1.10;;;25.40;1.00;;;;;;5050538;28;20517;-58
2022/05/24 13:06:38;;;;;;;1.50;1.20;;;25.30;1.00;;;;;;5050563;28;20489;-56
2022/05/24 13:09:15;;;;;;;3.83;1.30;;;25.10;1.00;;;;;;5065018;28;20469;-57
2022/05/24 13:11:43;;;;;;;1.97;1.50;;;24.70;1.00;;;;;;5058051;28;20761;-57
2022/05/24 13:14:33;;;;;;;1.30;1.20;;;24.80;1.00;;;;;;5063493;28;20434;-58
2022/05/24 13:16:59;;;;;;;3.47;1.40;;;24.60;1.00;;;;;;5070092;28;20923;-58
2022/05/24 13:19:25;;;;;;;1.23;1.10;;;24.60;1.00;;;;;;5049676;28;20542;-57
2022/05/24 13:21:54;;;;;;;2.17;1.23;;;24.60;1.00;;;;;;5054379;28;20200;-56
2022/05/24 13:24:20;;;;;;;1.40;1.00;;;24.80;1.00;;;;;;5062939;28;20184;-58
2022/05/24 13:27:05;;;;;;;2.13;1.13;;;25.10;1.00;;;;;;5072602;28;20461;-58
2022/05/24 13:33:33;;;;;;;3.40;1.40;;;24.90;1.00;;;;;;5074190;28;20429;-58
2022/05/24 13:35:09;;;;;;;4.20;1.50;;;24.50;1.00;;;;;;5061578;28;21072;-56
2022/05/24 13:37:53;;;;;;;1.73;1.30;;;24.30;1.00;;;;;;5053880;28;20441;-57
2022/05/24 13:40:20;;;;;;;1.77;1.50;;;24.30;1.00;;;;;;5053076;28;20188;-58
2022/05/24 13:42:57;;;;;;;1.87;1.30;;;24.20;1.00;;;;;;5052415;28;20434;-58
2022/05/24 13:45:27;;;;;;;2.90;1.60;;;24.20;1.00;;;;;;5053429;28;20462;-58
2022/05/24 13:47:56;;;;;;;1.60;1.50;;;24.20;1.00;;;;;;5071690;28;20460;-58
2022/05/24 13:50:22;;;;;;;3.03;1.30;;;24.30;1.00;;;;;;5060985;28;20965;-58
2022/05/24 13:52:50;;;;;;;1.40;1.10;;;24.60;1.00;;;;;;5053205;28;20438;-57
2022/05/24 13:55:33;;;;;;;2.90;0.90;;;24.70;1.00;;;;;;5057861;28;20179;-59
2022/05/24 13:58:06;;;;;;;2.50;1.50;;;25.10;1.00;;;;;;5055384;28;20513;-58
2022/05/24 14:00:50;;;;;;;1.27;1.17;;;24.90;1.00;;;;;;5053334;28;20461;-57